sensor_id;sensor_type;location;lat;lon;timestamp;P1;durP1;ratioP1;P2;durP2;ratioP2
483;SDS011;228;48.922;12.198;2023-04-03T00:01:01;2.33;;;1.90;;
483;SDS011;228;48.922;12.198;2023-04-03T00:03:28;2.57;;;2.10;;
483;SDS011;228;48.922;12.198;2023-04-03T00:05:54;2.97;;;1.87;;
483;SDS011;228;48.922;12.198;2023-04-03T00:08:21;3.10;;;2.30;;
483;SDS011;228;48.922;12.198;2023-04-03T00:10:47;4.27;;;2.10;;
483;SDS011;228;48.922;12.198;2023-04-03T00:13:13;2.97;;;2.37;;
483;SDS011;228;48.922;12.198;2023-04-03T00:15:39;2.30;;;2.10;;
483;SDS011;228;48.922;12.198;2023-04-03T00:18:06;3.20;;;2.10;;
483;SDS011;228;48.922;12.198;2023-04-03T00:20:32;3.37;;;2.37;;
483;SDS011;228;48.922;12.198;2023-04-03T00:22:59;2.20;;;2.00;;
483;SDS011;228;48.922;12.198;2023-04-03T00:25:26;3.13;;;2.20;;
483;SDS011;228;48.922;12.198;2023-04-03T00:27:53;4.67;;;2.20;;
483;SDS011;228;48.922;12.198;2023-04-03T00:30:20;2.03;;;1.87;;
483;SDS011;228;48.922;12.198;2023-04-03T00:32:49;2.23;;;2.03;;
483;SDS011;228;48.922;12.198;2023-04-03T00:35:17;3.10;;;2.20;;
483;SDS011;228;48.922;12.198;2023-04-03T00:37:46;2.50;;;2.20;;
483;SDS011;228;48.922;12.198;2023-04-03T00:40:13;2.77;;;2.20;;
483;SDS011;228;48.922;12.198;2023-04-03T00:42:41;3.10;;;1.93;;
483;SDS011;228;48.922;12.198;2023-04-03T00:47:36;2.60;;;2.40;;
483;SDS011;228;48.922;12.198;2023-04-03T00:50:04;3.03;;;2.40;;
483;SDS011;228;48.922;12.198;2023-04-03T00:52:32;3.57;;;2.40;;
483;SDS011;228;48.922;12.198;2023-04-03T00:55:00;2.30;;;2.10;;
483;SDS011;228;48.922;12.198;2023-04-03T00:57:30;3.23;;;2.53;;
483;SDS011;228;48.922;12.198;2023-04-03T00:59:59;2.67;;;2.20;;
483;SDS011;228;48.922;12.198;2023-04-03T01:02:38;5.20;;;2.67;;
483;SDS011;228;48.922;12.198;2023-04-03T01:05:07;2.17;;;1.97;;
483;SDS011;228;48.922;12.198;2023-04-03T01:07:34;2.47;;;2.23;;
483;SDS011;228;48.922;12.198;2023-04-03T01:10:06;3.30;;;2.40;;
483;SDS011;228;48.922;12.198;2023-04-03T01:12:40;4.60;;;2.60;;
483;SDS011;228;48.922;12.198;2023-04-03T01:15:14;2.67;;;2.30;;
483;SDS011;228;48.922;12.198;2023-04-03T01:17:53;2.17;;;1.97;;
483;SDS011;228;48.922;12.198;2023-04-03T01:25:37;2.33;;;2.13;;
483;SDS011;228;48.922;12.198;2023-04-03T01:28:21;3.23;;;2.13;;
483;SDS011;228;48.922;12.198;2023-04-03T01:31:06;4.03;;;2.30;;
483;SDS011;228;48.922;12.198;2023-04-03T01:33:56;2.47;;;1.90;;
483;SDS011;228;48.922;12.198;2023-04-03T01:36:28;2.37;;;2.17;;
483;SDS011;228;48.922;12.198;2023-04-03T01:38:57;2.87;;;2.30;;
483;SDS011;228;48.922;12.198;2023-04-03T01:41:25;2.53;;;2.33;;
483;SDS011;228;48.922;12.198;2023-04-03T01:43:58;2.93;;;2.20;;
483;SDS011;228;48.922;12.198;2023-04-03T01:46:24;3.73;;;2.60;;
483;SDS011;228;48.922;12.198;2023-04-03T01:48:50;2.60;;;2.23;;
483;SDS011;228;48.922;12.198;2023-04-03T01:51:16;2.47;;;2.27;;
483;SDS011;228;48.922;12.198;2023-04-03T01:53:42;3.50;;;2.40;;
483;SDS011;228;48.922;12.198;2023-04-03T01:56:08;3.27;;;2.53;;
483;SDS011;228;48.922;12.198;2023-04-03T01:58:35;4.43;;;2.30;;
483;SDS011;228;48.922;12.198;2023-04-03T02:01:01;3.43;;;2.20;;
483;SDS011;228;48.922;12.198;2023-04-03T02:03:28;3.67;;;2.70;;
483;SDS011;228;48.922;12.198;2023-04-03T02:05:54;3.80;;;2.83;;
483;SDS011;228;48.922;12.198;2023-04-03T02:08:20;2.90;;;2.30;;
483;SDS011;228;48.922;12.198;2023-04-03T02:10:47;3.77;;;2.73;;
483;SDS011;228;48.922;12.198;2023-04-03T02:13:14;3.83;;;2.80;;
483;SDS011;228;48.922;12.198;2023-04-03T02:15:41;3.83;;;2.67;;
483;SDS011;228;48.922;12.198;2023-04-03T02:18:07;3.00;;;2.53;;
483;SDS011;228;48.922;12.198;2023-04-03T02:20:34;5.03;;;3.17;;
483;SDS011;228;48.922;12.198;2023-04-03T02:23:00;3.30;;;3.00;;
483;SDS011;228;48.922;12.198;2023-04-03T02:25:27;5.40;;;3.40;;
483;SDS011;228;48.922;12.198;2023-04-03T02:27:55;3.70;;;2.83;;
483;SDS011;228;48.922;12.198;2023-04-03T02:30:21;5.50;;;3.43;;
483;SDS011;228;48.922;12.198;2023-04-03T02:32:47;4.37;;;3.23;;
483;SDS011;228;48.922;12.198;2023-04-03T02:35:13;4.90;;;3.27;;
483;SDS011;228;48.922;12.198;2023-04-03T02:37:40;4.13;;;3.00;;
483;SDS011;228;48.922;12.198;2023-04-03T02:40:06;4.43;;;2.90;;
483;SDS011;228;48.922;12.198;2023-04-03T02:42:34;4.37;;;3.10;;
483;SDS011;228;48.922;12.198;2023-04-03T02:45:02;4.40;;;2.97;;
483;SDS011;228;48.922;12.198;2023-04-03T02:47:28;4.60;;;2.93;;
483;SDS011;228;48.922;12.198;2023-04-03T02:49:55;3.87;;;3.00;;
483;SDS011;228;48.922;12.198;2023-04-03T02:52:21;2.80;;;2.57;;
483;SDS011;228;48.922;12.198;2023-04-03T02:54:48;3.87;;;2.80;;
483;SDS011;228;48.922;12.198;2023-04-03T02:57:14;3.37;;;2.87;;
483;SDS011;228;48.922;12.198;2023-04-03T02:59:40;4.03;;;2.93;;
483;SDS011;228;48.922;12.198;2023-04-03T03:02:08;4.13;;;2.73;;
483;SDS011;228;48.922;12.198;2023-04-03T03:04:34;3.53;;;2.90;;
483;SDS011;228;48.922;12.198;2023-04-03T03:07:01;4.47;;;3.00;;
483;SDS011;228;48.922;12.198;2023-04-03T03:09:27;4.37;;;3.00;;
483;SDS011;228;48.922;12.198;2023-04-03T03:11:55;3.60;;;2.40;;
483;SDS011;228;48.922;12.198;2023-04-03T03:14:22;3.33;;;2.90;;
483;SDS011;228;48.922;12.198;2023-04-03T03:16:48;5.13;;;2.57;;
483;SDS011;228;48.922;12.198;2023-04-03T03:19:14;2.97;;;2.43;;
483;SDS011;228;48.922;12.198;2023-04-03T03:21:41;3.07;;;2.77;;
483;SDS011;228;48.922;12.198;2023-04-03T03:24:07;4.30;;;2.80;;
483;SDS011;228;48.922;12.198;2023-04-03T03:26:33;5.17;;;3.37;;
483;SDS011;228;48.922;12.198;2023-04-03T03:29:01;5.13;;;3.67;;
483;SDS011;228;48.922;12.198;2023-04-03T03:31:28;4.03;;;2.53;;
483;SDS011;228;48.922;12.198;2023-04-03T03:33:54;3.30;;;2.90;;
483;SDS011;228;48.922;12.198;2023-04-03T03:36:21;3.20;;;2.63;;
483;SDS011;228;48.922;12.198;2023-04-03T03:38:47;3.10;;;2.60;;
483;SDS011;228;48.922;12.198;2023-04-03T03:41:13;3.27;;;2.97;;
483;SDS011;228;48.922;12.198;2023-04-03T03:43:41;3.50;;;2.63;;
483;SDS011;228;48.922;12.198;2023-04-03T03:46:07;3.97;;;2.53;;
483;SDS011;228;48.922;12.198;2023-04-03T03:48:33;5.53;;;2.70;;
483;SDS011;228;48.922;12.198;2023-04-03T03:51:00;3.63;;;2.70;;
483;SDS011;228;48.922;12.198;2023-04-03T03:53:30;3.53;;;2.60;;
483;SDS011;228;48.922;12.198;2023-04-03T03:56:01;2.87;;;2.53;;
483;SDS011;228;48.922;12.198;2023-04-03T03:58:29;4.33;;;2.70;;
483;SDS011;228;48.922;12.198;2023-04-03T04:00:56;3.00;;;2.37;;
483;SDS011;228;48.922;12.198;2023-04-03T04:03:22;3.00;;;2.50;;
483;SDS011;228;48.922;12.198;2023-04-03T04:05:50;3.03;;;2.70;;
483;SDS011;228;48.922;12.198;2023-04-03T04:08:16;4.47;;;2.40;;
483;SDS011;228;48.922;12.198;2023-04-03T04:10:44;3.23;;;2.50;;
483;SDS011;228;48.922;12.198;2023-04-03T04:13:11;6.93;;;2.70;;
483;SDS011;228;48.922;12.198;2023-04-03T04:15:38;3.67;;;2.67;;
483;SDS011;228;48.922;12.198;2023-04-03T04:18:04;2.50;;;2.30;;
483;SDS011;228;48.922;12.198;2023-04-03T04:20:31;5.20;;;2.93;;
483;SDS011;228;48.922;12.198;2023-04-03T04:22:57;3.77;;;2.73;;
483;SDS011;228;48.922;12.198;2023-04-03T04:25:24;3.27;;;2.77;;
483;SDS011;228;48.922;12.198;2023-04-03T04:27:51;3.23;;;2.60;;
483;SDS011;228;48.922;12.198;2023-04-03T04:30:17;4.70;;;2.60;;
483;SDS011;228;48.922;12.198;2023-04-03T04:32:46;3.47;;;2.70;;
483;SDS011;228;48.922;12.198;2023-04-03T04:35:13;5.03;;;3.00;;
483;SDS011;228;48.922;12.198;2023-04-03T04:37:41;3.27;;;2.70;;
483;SDS011;228;48.922;12.198;2023-04-03T04:40:08;3.40;;;2.50;;
483;SDS011;228;48.922;12.198;2023-04-03T04:42:34;3.57;;;2.73;;
483;SDS011;228;48.922;12.198;2023-04-03T04:45:00;4.20;;;2.90;;
483;SDS011;228;48.922;12.198;2023-04-03T04:47:28;6.43;;;3.10;;
483;SDS011;228;48.922;12.198;2023-04-03T04:49:55;4.47;;;3.30;;
483;SDS011;228;48.922;12.198;2023-04-03T04:52:21;6.23;;;4.33;;
483;SDS011;228;48.922;12.198;2023-04-03T04:54:47;6.80;;;4.10;;
483;SDS011;228;48.922;12.198;2023-04-03T04:57:13;8.03;;;3.93;;
483;SDS011;228;48.922;12.198;2023-04-03T04:59:41;7.00;;;3.63;;
483;SDS011;228;48.922;12.198;2023-04-03T05:02:07;7.53;;;4.03;;
483;SDS011;228;48.922;12.198;2023-04-03T05:04:34;5.90;;;3.50;;
483;SDS011;228;48.922;12.198;2023-04-03T05:07:06;8.57;;;3.90;;
483;SDS011;228;48.922;12.198;2023-04-03T05:09:34;6.70;;;4.00;;
483;SDS011;228;48.922;12.198;2023-04-03T05:12:01;9.07;;;4.03;;
483;SDS011;228;48.922;12.198;2023-04-03T05:14:32;5.53;;;4.00;;
483;SDS011;228;48.922;12.198;2023-04-03T05:17:02;9.10;;;4.03;;
483;SDS011;228;48.922;12.198;2023-04-03T05:19:31;8.07;;;3.93;;
483;SDS011;228;48.922;12.198;2023-04-03T05:21:58;6.27;;;3.97;;
483;SDS011;228;48.922;12.198;2023-04-03T05:24:25;8.80;;;4.43;;
483;SDS011;228;48.922;12.198;2023-04-03T05:26:51;7.40;;;4.63;;
483;SDS011;228;48.922;12.198;2023-04-03T05:29:17;7.77;;;4.73;;
483;SDS011;228;48.922;12.198;2023-04-03T05:31:43;10.80;;;4.60;;
483;SDS011;228;48.922;12.198;2023-04-03T05:34:11;11.13;;;4.23;;
483;SDS011;228;48.922;12.198;2023-04-03T05:36:39;7.50;;;4.03;;
483;SDS011;228;48.922;12.198;2023-04-03T05:39:07;3.20;;;2.90;;
483;SDS011;228;48.922;12.198;2023-04-03T05:41:36;4.47;;;2.93;;
483;SDS011;228;48.922;12.198;2023-04-03T05:44:03;2.93;;;2.60;;
483;SDS011;228;48.922;12.198;2023-04-03T05:46:29;4.20;;;2.97;;
483;SDS011;228;48.922;12.198;2023-04-03T05:48:57;6.03;;;3.07;;
483;SDS011;228;48.922;12.198;2023-04-03T05:51:32;4.07;;;3.33;;
483;SDS011;228;48.922;12.198;2023-04-03T05:54:24;4.07;;;3.07;;
483;SDS011;228;48.922;12.198;2023-04-03T05:56:59;4.53;;;3.00;;
483;SDS011;228;48.922;12.198;2023-04-03T05:59:26;2.70;;;2.50;;
483;SDS011;228;48.922;12.198;2023-04-03T06:01:55;3.90;;;3.10;;
483;SDS011;228;48.922;12.198;2023-04-03T06:04:21;4.47;;;3.27;;
483;SDS011;228;48.922;12.198;2023-04-03T06:06:54;7.33;;;3.43;;
483;SDS011;228;48.922;12.198;2023-04-03T06:09:26;6.00;;;3.20;;
483;SDS011;228;48.922;12.198;2023-04-03T06:11:57;4.30;;;3.33;;
483;SDS011;228;48.922;12.198;2023-04-03T06:14:24;4.70;;;3.20;;
483;SDS011;228;48.922;12.198;2023-04-03T06:16:51;4.57;;;3.17;;
483;SDS011;228;48.922;12.198;2023-04-03T06:19:18;5.13;;;3.53;;
483;SDS011;228;48.922;12.198;2023-04-03T06:21:49;5.87;;;3.50;;
483;SDS011;228;48.922;12.198;2023-04-03T06:24:16;5.30;;;3.93;;
483;SDS011;228;48.922;12.198;2023-04-03T06:26:42;3.80;;;3.03;;
483;SDS011;228;48.922;12.198;2023-04-03T06:29:09;4.30;;;3.10;;
483;SDS011;228;48.922;12.198;2023-04-03T06:31:35;3.40;;;2.80;;
483;SDS011;228;48.922;12.198;2023-04-03T06:34:02;3.67;;;3.20;;
483;SDS011;228;48.922;12.198;2023-04-03T06:36:29;4.20;;;3.53;;
483;SDS011;228;48.922;12.198;2023-04-03T06:38:55;3.53;;;3.23;;
483;SDS011;228;48.922;12.198;2023-04-03T06:41:21;11.10;;;3.43;;
483;SDS011;228;48.922;12.198;2023-04-03T06:43:47;3.53;;;3.20;;
483;SDS011;228;48.922;12.198;2023-04-03T06:46:17;3.70;;;3.20;;
483;SDS011;228;48.922;12.198;2023-04-03T06:48:47;7.13;;;3.53;;
483;SDS011;228;48.922;12.198;2023-04-03T06:51:27;5.23;;;3.37;;
483;SDS011;228;48.922;12.198;2023-04-03T06:53:55;3.83;;;3.03;;
483;SDS011;228;48.922;12.198;2023-04-03T06:56:24;4.37;;;3.27;;
483;SDS011;228;48.922;12.198;2023-04-03T06:58:51;3.53;;;3.00;;
483;SDS011;228;48.922;12.198;2023-04-03T07:01:26;6.63;;;3.00;;
483;SDS011;228;48.922;12.198;2023-04-03T07:03:54;3.30;;;2.80;;
483;SDS011;228;48.922;12.198;2023-04-03T07:06:21;3.53;;;3.00;;
483;SDS011;228;48.922;12.198;2023-04-03T07:08:47;5.50;;;3.47;;
483;SDS011;228;48.922;12.198;2023-04-03T07:11:14;4.77;;;2.80;;
483;SDS011;228;48.922;12.198;2023-04-03T07:13:41;10.40;;;3.10;;
483;SDS011;228;48.922;12.198;2023-04-03T07:16:07;3.17;;;2.80;;
483;SDS011;228;48.922;12.198;2023-04-03T07:18:34;4.43;;;2.90;;
483;SDS011;228;48.922;12.198;2023-04-03T07:21:00;6.47;;;3.20;;
483;SDS011;228;48.922;12.198;2023-04-03T07:23:27;5.47;;;2.57;;
483;SDS011;228;48.922;12.198;2023-04-03T07:25:54;3.97;;;3.13;;
483;SDS011;228;48.922;12.198;2023-04-03T07:28:20;2.90;;;2.60;;
483;SDS011;228;48.922;12.198;2023-04-03T07:30:49;7.57;;;3.20;;
483;SDS011;228;48.922;12.198;2023-04-03T07:33:24;3.73;;;3.00;;
483;SDS011;228;48.922;12.198;2023-04-03T07:35:51;4.63;;;2.63;;
483;SDS011;228;48.922;12.198;2023-04-03T07:38:17;3.73;;;2.90;;
483;SDS011;228;48.922;12.198;2023-04-03T07:40:47;5.70;;;2.97;;
483;SDS011;228;48.922;12.198;2023-04-03T07:43:15;4.37;;;2.60;;
483;SDS011;228;48.922;12.198;2023-04-03T07:45:42;4.10;;;3.03;;
483;SDS011;228;48.922;12.198;2023-04-03T07:48:12;3.60;;;2.77;;
483;SDS011;228;48.922;12.198;2023-04-03T07:50:42;5.10;;;2.80;;
483;SDS011;228;48.922;12.198;2023-04-03T07:53:08;5.40;;;3.07;;
483;SDS011;228;48.922;12.198;2023-04-03T07:55:35;3.90;;;2.63;;
483;SDS011;228;48.922;12.198;2023-04-03T07:58:11;3.87;;;2.93;;
483;SDS011;228;48.922;12.198;2023-04-03T08:00:40;7.07;;;2.97;;
483;SDS011;228;48.922;12.198;2023-04-03T08:03:07;3.13;;;2.73;;
483;SDS011;228;48.922;12.198;2023-04-03T08:05:37;3.70;;;3.00;;
483;SDS011;228;48.922;12.198;2023-04-03T08:08:05;3.93;;;2.50;;
483;SDS011;228;48.922;12.198;2023-04-03T08:10:32;4.20;;;2.67;;
483;SDS011;228;48.922;12.198;2023-04-03T08:12:59;4.00;;;3.03;;
483;SDS011;228;48.922;12.198;2023-04-03T08:15:25;5.30;;;3.10;;
483;SDS011;228;48.922;12.198;2023-04-03T08:17:52;6.60;;;2.83;;
483;SDS011;228;48.922;12.198;2023-04-03T08:20:18;3.50;;;2.43;;
483;SDS011;228;48.922;12.198;2023-04-03T08:22:45;3.30;;;2.43;;
483;SDS011;228;48.922;12.198;2023-04-03T08:25:11;3.70;;;2.47;;
483;SDS011;228;48.922;12.198;2023-04-03T08:27:37;6.77;;;2.67;;
483;SDS011;228;48.922;12.198;2023-04-03T08:30:04;5.27;;;2.80;;
483;SDS011;228;48.922;12.198;2023-04-03T08:32:32;10.57;;;2.83;;
483;SDS011;228;48.922;12.198;2023-04-03T08:34:59;3.33;;;2.53;;
483;SDS011;228;48.922;12.198;2023-04-03T08:37:25;2.40;;;2.20;;
483;SDS011;228;48.922;12.198;2023-04-03T08:39:51;2.80;;;1.97;;
483;SDS011;228;48.922;12.198;2023-04-03T08:48:15;2.80;;;1.70;;
483;SDS011;228;48.922;12.198;2023-04-03T08:50:50;2.47;;;1.80;;
483;SDS011;228;48.922;12.198;2023-04-03T08:53:23;2.90;;;1.70;;
483;SDS011;228;48.922;12.198;2023-04-03T08:55:53;2.13;;;1.47;;
483;SDS011;228;48.922;12.198;2023-04-03T08:58:22;3.33;;;1.80;;
483;SDS011;228;48.922;12.198;2023-04-03T09:01:01;1.57;;;1.47;;
483;SDS011;228;48.922;12.198;2023-04-03T09:03:38;2.87;;;1.53;;
483;SDS011;228;48.922;12.198;2023-04-03T09:16:58;1.73;;;1.30;;
483;SDS011;228;48.922;12.198;2023-04-03T09:19:36;1.30;;;1.20;;
483;SDS011;228;48.922;12.198;2023-04-03T09:25:11;2.03;;;1.13;;
483;SDS011;228;48.922;12.198;2023-04-03T09:27:47;3.80;;;1.97;;
483;SDS011;228;48.922;12.198;2023-04-03T09:30:21;3.93;;;1.97;;
483;SDS011;228;48.922;12.198;2023-04-03T09:32:53;3.13;;;1.70;;
483;SDS011;228;48.922;12.198;2023-04-03T09:35:29;2.90;;;1.67;;
483;SDS011;228;48.922;12.198;2023-04-03T09:42:56;1.50;;;1.40;;
483;SDS011;228;48.922;12.198;2023-04-03T09:45:30;1.20;;;1.10;;
483;SDS011;228;48.922;12.198;2023-04-03T09:48:08;1.37;;;1.20;;
483;SDS011;228;48.922;12.198;2023-04-03T09:50:38;2.13;;;1.37;;
483;SDS011;228;48.922;12.198;2023-04-03T09:53:45;2.93;;;1.20;;
483;SDS011;228;48.922;12.198;2023-04-03T09:58:44;1.27;;;1.10;;
483;SDS011;228;48.922;12.198;2023-04-03T10:01:33;2.67;;;0.93;;
483;SDS011;228;48.922;12.198;2023-04-03T10:04:06;1.57;;;1.30;;
483;SDS011;228;48.922;12.198;2023-04-03T10:06:40;1.77;;;0.90;;
483;SDS011;228;48.922;12.198;2023-04-03T10:12:05;1.83;;;1.33;;
483;SDS011;228;48.922;12.198;2023-04-03T10:14:38;1.63;;;1.23;;
483;SDS011;228;48.922;12.198;2023-04-03T10:17:35;1.67;;;1.20;;
483;SDS011;228;48.922;12.198;2023-04-03T10:28:06;0.83;;;0.83;;
483;SDS011;228;48.922;12.198;2023-04-03T10:42:22;1.63;;;0.93;;
483;SDS011;228;48.922;12.198;2023-04-03T10:51:42;2.23;;;1.30;;
483;SDS011;228;48.922;12.198;2023-04-03T10:54:12;1.30;;;1.00;;
483;SDS011;228;48.922;12.198;2023-04-03T10:56:53;2.07;;;1.13;;
483;SDS011;228;48.922;12.198;2023-04-03T11:04:59;1.70;;;1.20;;
483;SDS011;228;48.922;12.198;2023-04-03T11:07:34;1.20;;;1.10;;
483;SDS011;228;48.922;12.198;2023-04-03T11:10:10;1.10;;;1.00;;
483;SDS011;228;48.922;12.198;2023-04-03T11:13:02;1.27;;;1.17;;
483;SDS011;228;48.922;12.198;2023-04-03T11:15:39;1.97;;;1.40;;
483;SDS011;228;48.922;12.198;2023-04-03T11:18:08;1.57;;;1.23;;
483;SDS011;228;48.922;12.198;2023-04-03T11:20:40;1.67;;;1.37;;
483;SDS011;228;48.922;12.198;2023-04-03T11:23:29;1.27;;;1.10;;
483;SDS011;228;48.922;12.198;2023-04-03T11:26:10;1.63;;;1.20;;
483;SDS011;228;48.922;12.198;2023-04-03T11:28:40;1.90;;;1.30;;
483;SDS011;228;48.922;12.198;2023-04-03T11:31:13;1.80;;;1.20;;
483;SDS011;228;48.922;12.198;2023-04-03T11:42:53;1.90;;;1.70;;
483;SDS011;228;48.922;12.198;2023-04-03T11:45:35;1.60;;;1.30;;
483;SDS011;228;48.922;12.198;2023-04-03T11:50:55;3.40;;;1.43;;
483;SDS011;228;48.922;12.198;2023-04-03T11:53:26;1.57;;;1.47;;
483;SDS011;228;48.922;12.198;2023-04-03T11:56:00;3.43;;;2.20;;
483;SDS011;228;48.922;12.198;2023-04-03T12:01:51;1.63;;;1.50;;
483;SDS011;228;48.922;12.198;2023-04-03T12:04:24;3.23;;;1.30;;
483;SDS011;228;48.922;12.198;2023-04-03T12:06:59;1.63;;;1.53;;
483;SDS011;228;48.922;12.198;2023-04-03T12:12:21;2.27;;;1.33;;
483;SDS011;228;48.922;12.198;2023-04-03T12:14:55;1.73;;;1.40;;
483;SDS011;228;48.922;12.198;2023-04-03T12:17:37;2.47;;;1.47;;
483;SDS011;228;48.922;12.198;2023-04-03T12:20:28;1.60;;;1.40;;
483;SDS011;228;48.922;12.198;2023-04-03T12:23:24;1.57;;;1.47;;
483;SDS011;228;48.922;12.198;2023-04-03T12:26:19;2.20;;;1.30;;
483;SDS011;228;48.922;12.198;2023-04-03T12:29:26;1.40;;;1.30;;
483;SDS011;228;48.922;12.198;2023-04-03T12:32:21;1.63;;;1.37;;
483;SDS011;228;48.922;12.198;2023-04-03T12:47:34;2.30;;;1.53;;
483;SDS011;228;48.922;12.198;2023-04-03T12:50:04;1.80;;;1.70;;
483;SDS011;228;48.922;12.198;2023-04-03T12:52:47;4.50;;;1.40;;
483;SDS011;228;48.922;12.198;2023-04-03T12:55:27;1.97;;;1.57;;
483;SDS011;228;48.922;12.198;2023-04-03T12:57:53;2.23;;;1.57;;
483;SDS011;228;48.922;12.198;2023-04-03T13:02:59;2.73;;;2.00;;
483;SDS011;228;48.922;12.198;2023-04-03T13:05:27;2.27;;;1.50;;
483;SDS011;228;48.922;12.198;2023-04-03T13:07:59;1.80;;;1.60;;
483;SDS011;228;48.922;12.198;2023-04-03T13:10:30;2.03;;;1.60;;
483;SDS011;228;48.922;12.198;2023-04-03T13:12:58;1.60;;;1.40;;
483;SDS011;228;48.922;12.198;2023-04-03T13:15:41;2.20;;;1.50;;
483;SDS011;228;48.922;12.198;2023-04-03T13:18:24;5.43;;;2.10;;
483;SDS011;228;48.922;12.198;2023-04-03T13:21:00;1.60;;;1.50;;
483;SDS011;228;48.922;12.198;2023-04-03T13:23:31;2.33;;;1.37;;
483;SDS011;228;48.922;12.198;2023-04-03T13:26:01;3.70;;;1.60;;
483;SDS011;228;48.922;12.198;2023-04-03T13:28:29;1.83;;;1.40;;
483;SDS011;228;48.922;12.198;2023-04-03T13:34:02;2.30;;;1.60;;
483;SDS011;228;48.922;12.198;2023-04-03T13:36:43;1.87;;;1.43;;
483;SDS011;228;48.922;12.198;2023-04-03T13:39:24;4.27;;;1.40;;
483;SDS011;228;48.922;12.198;2023-04-03T13:42:00;1.80;;;1.60;;
483;SDS011;228;48.922;12.198;2023-04-03T13:44:41;1.63;;;1.50;;
483;SDS011;228;48.922;12.198;2023-04-03T13:49:41;2.63;;;1.40;;
483;SDS011;228;48.922;12.198;2023-04-03T13:52:30;3.43;;;1.70;;
483;SDS011;228;48.922;12.198;2023-04-03T13:55:26;2.73;;;1.60;;
483;SDS011;228;48.922;12.198;2023-04-03T14:00:36;1.60;;;1.50;;
483;SDS011;228;48.922;12.198;2023-04-03T14:03:33;2.73;;;1.70;;
483;SDS011;228;48.922;12.198;2023-04-03T14:06:13;1.50;;;1.40;;
483;SDS011;228;48.922;12.198;2023-04-03T14:08:42;1.60;;;1.47;;
483;SDS011;228;48.922;12.198;2023-04-03T14:11:20;2.37;;;1.73;;
483;SDS011;228;48.922;12.198;2023-04-03T14:13:49;2.67;;;1.60;;
483;SDS011;228;48.922;12.198;2023-04-03T14:16:20;1.70;;;1.60;;
483;SDS011;228;48.922;12.198;2023-04-03T14:18:50;2.83;;;1.70;;
483;SDS011;228;48.922;12.198;2023-04-03T14:21:18;3.30;;;1.87;;
483;SDS011;228;48.922;12.198;2023-04-03T14:23:45;2.40;;;1.63;;
483;SDS011;228;48.922;12.198;2023-04-03T14:26:20;1.77;;;1.60;;
483;SDS011;228;48.922;12.198;2023-04-03T14:28:49;2.10;;;1.70;;
483;SDS011;228;48.922;12.198;2023-04-03T14:31:19;2.07;;;1.57;;
483;SDS011;228;48.922;12.198;2023-04-03T14:33:46;2.03;;;1.70;;
483;SDS011;228;48.922;12.198;2023-04-03T14:36:17;2.20;;;1.57;;
483;SDS011;228;48.922;12.198;2023-04-03T14:38:51;1.60;;;1.43;;
483;SDS011;228;48.922;12.198;2023-04-03T14:41:19;1.80;;;1.60;;
483;SDS011;228;48.922;12.198;2023-04-03T14:43:48;1.70;;;1.57;;
483;SDS011;228;48.922;12.198;2023-04-03T14:46:16;1.70;;;1.60;;
483;SDS011;228;48.922;12.198;2023-04-03T14:48:56;1.40;;;1.30;;
483;SDS011;228;48.922;12.198;2023-04-03T14:51:24;2.37;;;2.03;;
483;SDS011;228;48.922;12.198;2023-04-03T14:53:51;1.73;;;1.40;;
483;SDS011;228;48.922;12.198;2023-04-03T14:56:21;1.37;;;1.27;;
483;SDS011;228;48.922;12.198;2023-04-03T14:58:54;2.47;;;1.60;;
483;SDS011;228;48.922;12.198;2023-04-03T15:01:25;1.57;;;1.43;;
483;SDS011;228;48.922;12.198;2023-04-03T15:03:53;1.77;;;1.50;;
483;SDS011;228;48.922;12.198;2023-04-03T15:06:20;1.83;;;1.60;;
483;SDS011;228;48.922;12.198;2023-04-03T15:08:47;2.27;;;1.57;;
483;SDS011;228;48.922;12.198;2023-04-03T15:11:14;2.57;;;1.80;;
483;SDS011;228;48.922;12.198;2023-04-03T15:13:40;2.50;;;1.60;;
483;SDS011;228;48.922;12.198;2023-04-03T15:16:12;2.17;;;1.40;;
483;SDS011;228;48.922;12.198;2023-04-03T15:18:44;1.70;;;1.60;;
483;SDS011;228;48.922;12.198;2023-04-03T15:21:11;1.57;;;1.23;;
483;SDS011;228;48.922;12.198;2023-04-03T15:23:37;2.60;;;1.67;;
483;SDS011;228;48.922;12.198;2023-04-03T15:26:03;1.40;;;1.30;;
483;SDS011;228;48.922;12.198;2023-04-03T15:28:31;1.97;;;1.60;;
483;SDS011;228;48.922;12.198;2023-04-03T15:31:00;3.80;;;1.70;;
483;SDS011;228;48.922;12.198;2023-04-03T15:33:27;2.00;;;1.50;;
483;SDS011;228;48.922;12.198;2023-04-03T15:35:53;1.80;;;1.50;;
483;SDS011;228;48.922;12.198;2023-04-03T15:38:19;3.00;;;1.77;;
483;SDS011;228;48.922;12.198;2023-04-03T15:40:45;1.93;;;1.60;;
483;SDS011;228;48.922;12.198;2023-04-03T15:43:12;4.13;;;1.33;;
483;SDS011;228;48.922;12.198;2023-04-03T15:45:39;2.10;;;1.70;;
483;SDS011;228;48.922;12.198;2023-04-03T15:48:05;4.67;;;2.47;;
483;SDS011;228;48.922;12.198;2023-04-03T15:50:33;2.90;;;1.80;;
483;SDS011;228;48.922;12.198;2023-04-03T15:52:59;3.40;;;2.07;;
483;SDS011;228;48.922;12.198;2023-04-03T15:55:27;4.77;;;2.53;;
483;SDS011;228;48.922;12.198;2023-04-03T15:57:56;4.67;;;3.27;;
483;SDS011;228;48.922;12.198;2023-04-03T16:00:23;3.10;;;2.30;;
483;SDS011;228;48.922;12.198;2023-04-03T16:02:52;3.70;;;2.70;;
483;SDS011;228;48.922;12.198;2023-04-03T16:05:23;4.40;;;2.90;;
483;SDS011;228;48.922;12.198;2023-04-03T16:07:50;2.87;;;2.03;;
483;SDS011;228;48.922;12.198;2023-04-03T16:10:18;4.80;;;1.83;;
483;SDS011;228;48.922;12.198;2023-04-03T16:12:45;3.77;;;1.73;;
483;SDS011;228;48.922;12.198;2023-04-03T16:15:11;1.90;;;1.40;;
483;SDS011;228;48.922;12.198;2023-04-03T16:17:37;2.50;;;2.03;;
483;SDS011;228;48.922;12.198;2023-04-03T16:20:06;4.03;;;2.23;;
483;SDS011;228;48.922;12.198;2023-04-03T16:22:33;4.93;;;1.80;;
483;SDS011;228;48.922;12.198;2023-04-03T16:25:00;2.57;;;1.70;;
483;SDS011;228;48.922;12.198;2023-04-03T16:27:26;1.80;;;1.70;;
483;SDS011;228;48.922;12.198;2023-04-03T16:29:59;5.43;;;2.30;;
483;SDS011;228;48.922;12.198;2023-04-03T16:32:26;2.70;;;1.80;;
483;SDS011;228;48.922;12.198;2023-04-03T16:34:55;2.53;;;1.93;;
483;SDS011;228;48.922;12.198;2023-04-03T16:37:21;1.87;;;1.70;;
483;SDS011;228;48.922;12.198;2023-04-03T16:39:47;3.17;;;2.00;;
483;SDS011;228;48.922;12.198;2023-04-03T16:42:13;2.40;;;1.90;;
483;SDS011;228;48.922;12.198;2023-04-03T16:44:39;4.00;;;2.30;;
483;SDS011;228;48.922;12.198;2023-04-03T16:47:06;2.37;;;2.10;;
483;SDS011;228;48.922;12.198;2023-04-03T16:49:33;2.07;;;1.50;;
483;SDS011;228;48.922;12.198;2023-04-03T16:52:00;2.63;;;2.10;;
483;SDS011;228;48.922;12.198;2023-04-03T16:54:27;1.90;;;1.70;;
483;SDS011;228;48.922;12.198;2023-04-03T16:56:54;3.50;;;1.90;;
483;SDS011;228;48.922;12.198;2023-04-03T16:59:20;3.87;;;2.03;;
483;SDS011;228;48.922;12.198;2023-04-03T17:01:47;2.20;;;1.83;;
483;SDS011;228;48.922;12.198;2023-04-03T17:04:13;2.00;;;1.73;;
483;SDS011;228;48.922;12.198;2023-04-03T17:06:39;1.57;;;1.43;;
483;SDS011;228;48.922;12.198;2023-04-03T17:09:06;1.97;;;1.57;;
483;SDS011;228;48.922;12.198;2023-04-03T17:11:34;2.37;;;1.70;;
483;SDS011;228;48.922;12.198;2023-04-03T17:14:01;2.73;;;1.60;;
483;SDS011;228;48.922;12.198;2023-04-03T17:16:28;2.90;;;2.33;;
483;SDS011;228;48.922;12.198;2023-04-03T17:18:55;2.67;;;2.27;;
483;SDS011;228;48.922;12.198;2023-04-03T17:21:22;2.67;;;1.20;;
483;SDS011;228;48.922;12.198;2023-04-03T17:23:53;2.40;;;1.70;;
483;SDS011;228;48.922;12.198;2023-04-03T17:26:23;1.87;;;1.60;;
483;SDS011;228;48.922;12.198;2023-04-03T17:28:50;3.93;;;2.00;;
483;SDS011;228;48.922;12.198;2023-04-03T17:31:17;2.03;;;1.80;;
483;SDS011;228;48.922;12.198;2023-04-03T17:33:44;2.50;;;1.73;;
483;SDS011;228;48.922;12.198;2023-04-03T17:36:10;2.53;;;1.93;;
483;SDS011;228;48.922;12.198;2023-04-03T17:38:37;2.73;;;2.00;;